Terminal Aerodrome Forecast
Issued by NWS

Home | Current Version | Previous Version | Text Only | Print | Product List | Glossary On
Versions: 1 2 3 4 5 6 7 8 9 10 11 12 13 14 15 16 17 18 19 20 21 22 23 24 25 26 27 28 29 30 31
000
FTUS46 KMTR 222300
TAFSFO
TAF
KSFO 222340Z 2300/2406 26014KT P6SM FEW008 BKN020 BKN035
     FM230300 26010KT P6SM FEW006 BKN020 BKN030
     FM230800 26008KT P6SM OVC015
     FM231800 25011KT P6SM BKN016 BKN022
     FM232200 26017G22KT P6SM SCT020 BKN030
     FM240400 27017KT P6SM FEW020 BKN030=

USA.gov is the U.S. government's official web portal to all federal, state and local government web resources and services.